createdAt,value
2018-04-08T00:02:04.424Z,71.57
2018-04-08T00:04:31.938Z,71.46
2018-04-08T00:06:59.484Z,71.32
2018-04-08T00:09:26.994Z,71.01
2018-04-08T00:11:54.509Z,70.85
2018-04-08T00:14:22.018Z,70.86
2018-04-08T00:16:49.570Z,70.51
2018-04-08T00:19:17.081Z,70.44
2018-04-08T00:21:44.609Z,70.00
2018-04-08T00:24:12.132Z,70.28
2018-04-08T00:26:39.629Z,70.29
2018-04-08T00:29:07.134Z,70.09
2018-04-08T00:31:34.677Z,70.08
2018-04-08T00:34:02.186Z,70.33
2018-04-08T00:36:29.737Z,70.33
2018-04-08T00:38:57.244Z,70.36
2018-04-08T00:41:24.745Z,70.39
2018-04-08T00:43:52.253Z,70.73
2018-04-08T00:46:19.767Z,71.15
2018-04-08T00:48:47.329Z,71.11
2018-04-08T00:51:14.832Z,71.18
2018-04-08T00:53:42.345Z,70.94
2018-04-08T00:56:09.857Z,71.01
2018-04-08T00:58:37.369Z,71.23
2018-04-08T01:01:05.058Z,71.20
2018-04-08T01:03:32.594Z,71.33
2018-04-08T01:06:00.144Z,71.42
2018-04-08T01:08:27.653Z,71.50
2018-04-08T01:10:55.161Z,71.02
2018-04-08T01:13:22.672Z,71.37
2018-04-08T01:15:50.230Z,71.17
2018-04-08T01:18:17.749Z,71.88
2018-04-08T01:20:45.265Z,71.58
2018-04-08T01:23:12.777Z,72.11
2018-04-08T01:25:40.327Z,71.90
2018-04-08T01:28:07.845Z,71.65
2018-04-08T01:30:35.400Z,72.25
2018-04-08T01:33:02.952Z,72.17
2018-04-08T01:35:30.461Z,72.56
2018-04-08T01:37:57.978Z,72.12
2018-04-08T01:40:25.536Z,72.13
2018-04-08T01:42:53.046Z,72.40
2018-04-08T01:45:20.556Z,73.10
2018-04-08T01:47:48.073Z,73.49
2018-04-08T01:50:15.585Z,73.72
2018-04-08T01:52:43.171Z,73.50
2018-04-08T01:55:10.690Z,74.16
2018-04-08T01:57:38.197Z,74.22
2018-04-08T02:00:05.749Z,74.71
2018-04-08T02:02:33.245Z,74.90
2018-04-08T02:05:00.748Z,74.81
2018-04-08T02:07:28.260Z,74.48
2018-04-08T02:09:55.816Z,74.47
2018-04-08T02:12:23.320Z,74.37
2018-04-08T02:14:50.817Z,74.82
2018-04-08T02:17:18.600Z,74.83
2018-04-08T02:19:46.106Z,74.96
2018-04-08T02:22:13.612Z,75.72
2018-04-08T02:24:41.158Z,75.02
2018-04-08T02:27:08.673Z,75.11
2018-04-08T02:29:36.184Z,75.10
2018-04-08T02:32:03.721Z,74.85
2018-04-08T02:34:31.265Z,75.16
2018-04-08T02:36:58.769Z,75.35
2018-04-08T02:39:26.321Z,75.33
2018-04-08T02:41:53.847Z,74.92
2018-04-08T02:44:21.392Z,74.87
2018-04-08T02:46:48.937Z,75.00
2018-04-08T02:49:16.441Z,75.11
2018-04-08T02:51:43.984Z,74.97
2018-04-08T02:54:11.498Z,75.12
2018-04-08T02:56:39.041Z,75.26
2018-04-08T02:59:06.541Z,75.31
2018-04-08T03:01:34.092Z,75.24
2018-04-08T03:04:01.629Z,74.98
2018-04-08T03:06:29.142Z,74.62
2018-04-08T03:08:56.653Z,73.74
2018-04-08T03:11:24.164Z,73.73
2018-04-08T03:13:51.669Z,74.01
2018-04-08T03:16:19.185Z,73.94
2018-04-08T03:18:46.695Z,73.75
2018-04-08T03:21:14.202Z,73.88
2018-04-08T03:23:41.716Z,73.46
2018-04-08T03:26:09.222Z,73.69
2018-04-08T03:28:36.728Z,74.19
2018-04-08T03:31:04.261Z,73.97
2018-04-08T03:33:31.777Z,72.76
2018-04-08T03:35:59.282Z,74.06
2018-04-08T03:38:26.793Z,73.75
2018-04-08T03:40:54.310Z,73.85
2018-04-08T03:43:21.828Z,73.76
2018-04-08T03:45:49.370Z,73.50
2018-04-08T03:48:16.881Z,73.74
2018-04-08T03:50:44.390Z,73.71
2018-04-08T03:53:11.930Z,73.38
2018-04-08T03:55:39.428Z,72.68
2018-04-08T03:58:06.977Z,74.07
2018-04-08T04:00:34.497Z,72.80
2018-04-08T04:03:02.003Z,72.76
2018-04-08T04:05:29.521Z,75.04
2018-04-08T04:07:57.069Z,74.14
2018-04-08T04:10:24.575Z,74.77
2018-04-08T04:12:52.111Z,74.29
2018-04-08T04:15:19.647Z,73.53
2018-04-08T04:17:47.160Z,72.83
2018-04-08T04:20:26.412Z,72.94
2018-04-08T04:23:05.776Z,72.75
2018-04-08T04:28:39.228Z,72.70
2018-04-08T04:31:06.785Z,72.63
2018-04-08T04:33:34.292Z,71.44
2018-04-08T04:36:01.796Z,70.81
2018-04-08T04:38:29.352Z,69.40
2018-04-08T04:40:56.863Z,67.41
2018-04-08T04:43:24.423Z,66.00
2018-04-08T04:45:51.972Z,64.49
2018-04-08T04:48:19.517Z,63.11
2018-04-08T04:50:47.020Z,63.05
2018-04-08T04:53:14.569Z,61.69
2018-04-08T04:55:42.079Z,63.05
2018-04-08T04:58:09.584Z,62.64
2018-04-08T05:00:37.136Z,61.71
2018-04-08T05:03:04.640Z,59.85
2018-04-08T05:05:32.188Z,59.58
2018-04-08T05:07:59.702Z,58.70
2018-04-08T05:10:27.249Z,59.08
2018-04-08T05:12:54.762Z,57.31
2018-04-08T05:15:22.304Z,56.20
2018-04-08T05:17:49.813Z,55.75
2018-04-08T05:20:17.364Z,55.87
2018-04-08T05:22:44.864Z,55.62
2018-04-08T05:25:12.382Z,54.49
2018-04-08T05:27:39.900Z,52.97
2018-04-08T05:30:07.440Z,52.53
2018-04-08T05:32:34.952Z,51.66
2018-04-08T05:35:02.462Z,48.51
2018-04-08T05:37:29.982Z,48.30
2018-04-08T05:39:57.488Z,50.23
2018-04-08T05:42:25.040Z,49.37
2018-04-08T05:44:52.584Z,49.50
2018-04-08T05:47:21.033Z,50.22
2018-04-08T05:49:48.552Z,49.41
2018-04-08T05:52:16.065Z,48.09
2018-04-08T05:54:43.569Z,47.80
2018-04-08T05:57:11.078Z,48.71
2018-04-08T05:59:38.621Z,48.05
2018-04-08T06:02:06.165Z,45.31
2018-04-08T06:04:33.678Z,46.05
2018-04-08T06:07:01.215Z,45.42
2018-04-08T06:09:28.727Z,45.74
2018-04-08T06:11:56.281Z,45.86
2018-04-08T06:14:23.789Z,46.14
2018-04-08T06:16:52.217Z,44.67
2018-04-08T06:19:19.738Z,45.56
2018-04-08T06:21:47.287Z,47.76
2018-04-08T06:24:14.806Z,48.81
2018-04-08T06:26:42.314Z,46.49
2018-04-08T06:29:09.817Z,44.35
2018-04-08T06:31:37.377Z,44.26
2018-04-08T06:34:04.896Z,40.35
2018-04-08T06:36:32.413Z,38.70
2018-04-08T06:38:59.969Z,39.16
2018-04-08T06:41:27.480Z,39.11
2018-04-08T06:43:54.995Z,39.77
2018-04-08T06:46:22.642Z,40.12
2018-04-08T06:48:50.154Z,38.20
2018-04-08T06:51:17.733Z,39.58
2018-04-08T06:53:45.263Z,37.90
2018-04-08T06:56:12.816Z,35.00
2018-04-08T06:58:40.331Z,36.35
2018-04-08T07:01:07.898Z,35.00
2018-04-08T07:03:35.421Z,35.63
2018-04-08T07:06:02.971Z,37.84
2018-04-08T07:08:30.576Z,34.35
2018-04-08T07:10:58.092Z,33.97
2018-04-08T07:13:25.670Z,33.22
2018-04-08T07:15:53.230Z,32.90
2018-04-08T07:18:20.808Z,33.57
2018-04-08T07:20:48.312Z,33.65
2018-04-08T07:23:15.825Z,35.10
2018-04-08T07:25:43.372Z,36.11
2018-04-08T07:28:10.887Z,33.74
2018-04-08T07:30:38.457Z,34.69
2018-04-08T07:33:05.961Z,34.35
2018-04-08T07:35:33.487Z,33.88
2018-04-08T07:38:01.039Z,31.78
2018-04-08T07:40:28.528Z,32.36
2018-04-08T07:42:56.037Z,32.03
2018-04-08T07:45:23.593Z,31.18
2018-04-08T07:47:51.121Z,32.06
2018-04-08T07:50:18.653Z,31.10
2018-04-08T07:52:46.198Z,30.80
2018-04-08T07:55:13.712Z,30.48
2018-04-08T07:57:41.226Z,31.75
2018-04-08T08:00:08.782Z,31.87
2018-04-08T08:02:36.285Z,32.03
2018-04-08T08:05:03.839Z,32.26
2018-04-08T08:07:31.357Z,32.41
2018-04-08T08:09:58.873Z,33.29
2018-04-08T08:12:26.429Z,31.27
2018-04-08T08:14:53.936Z,32.19
2018-04-08T08:17:21.481Z,31.85
2018-04-08T08:19:48.997Z,34.18
2018-04-08T08:22:16.521Z,33.62
2018-04-08T08:24:44.076Z,31.85
2018-04-08T08:27:11.632Z,30.67
2018-04-08T08:29:39.197Z,32.91
2018-04-08T08:32:06.704Z,32.67
2018-04-08T08:34:34.281Z,32.02
2018-04-08T08:37:01.795Z,32.14
2018-04-08T08:39:29.330Z,32.28
2018-04-08T08:41:56.881Z,30.20
2018-04-08T08:44:24.392Z,27.35
2018-04-08T08:46:51.913Z,28.97
2018-04-08T08:49:19.434Z,28.91
2018-04-08T08:51:46.943Z,29.99
2018-04-08T08:54:14.496Z,31.07
2018-04-08T08:56:42.011Z,30.50
2018-04-08T08:59:09.555Z,27.80
2018-04-08T09:01:37.101Z,28.23
2018-04-08T09:04:04.671Z,26.72
2018-04-08T09:06:32.219Z,27.32
2018-04-08T09:08:59.745Z,26.72
2018-04-08T09:11:27.297Z,25.82
2018-04-08T09:13:54.793Z,27.52
2018-04-08T09:16:22.300Z,25.60
2018-04-08T09:18:52.640Z,23.77
2018-04-08T09:21:31.853Z,22.37
2018-04-08T09:24:04.297Z,24.57
2018-04-08T09:26:31.841Z,30.00
2018-04-08T09:28:59.388Z,28.46
2018-04-08T09:31:26.894Z,26.53
2018-04-08T09:33:54.412Z,26.16
2018-04-08T09:36:21.976Z,23.70
2018-04-08T09:38:49.482Z,24.21
2018-04-08T09:41:16.985Z,23.53
2018-04-08T09:43:45.236Z,23.49
2018-04-08T09:46:12.745Z,23.24
2018-04-08T09:48:40.245Z,23.61
2018-04-08T09:51:07.748Z,24.16
2018-04-08T09:53:35.253Z,22.84
2018-04-08T09:56:02.767Z,22.24
2018-04-08T09:58:30.315Z,22.56
2018-04-08T10:04:00.976Z,23.04
2018-04-08T10:06:28.524Z,22.32
2018-04-08T10:08:56.033Z,22.36
2018-04-08T10:11:23.577Z,20.96
2018-04-08T10:13:51.080Z,21.22
2018-04-08T10:16:18.594Z,21.09
2018-04-08T10:18:46.148Z,20.87
2018-04-08T10:21:13.663Z,20.07
2018-04-08T10:23:41.243Z,18.13
2018-04-08T10:26:08.754Z,19.79
2018-04-08T10:28:36.265Z,20.71
2018-04-08T10:31:03.852Z,20.51
2018-04-08T10:33:31.430Z,21.29
2018-04-08T10:35:59.049Z,21.69
2018-04-08T10:38:26.709Z,21.70
2018-04-08T10:40:54.293Z,22.14
2018-04-08T10:43:21.837Z,21.82
2018-04-08T10:45:49.368Z,20.17
2018-04-08T10:48:17.006Z,19.47
2018-04-08T10:50:44.546Z,19.29
2018-04-08T10:53:12.097Z,23.08
2018-04-08T10:55:39.605Z,22.66
2018-04-08T10:58:07.124Z,21.97
2018-04-08T11:00:34.685Z,23.58
2018-04-08T11:03:02.243Z,22.78
2018-04-08T11:05:29.765Z,22.93
2018-04-08T11:07:57.273Z,21.56
2018-04-08T11:10:24.772Z,20.88
2018-04-08T11:12:52.337Z,20.91
2018-04-08T11:15:19.848Z,21.38
2018-04-08T11:17:47.397Z,23.52
2018-04-08T11:20:14.909Z,23.28
2018-04-08T11:22:42.417Z,23.61
2018-04-08T11:25:09.934Z,25.13
2018-04-08T11:27:37.489Z,24.84
2018-04-08T11:30:05.584Z,23.43
2018-04-08T11:32:33.137Z,23.24
2018-04-08T11:35:00.687Z,23.99
2018-04-08T11:37:28.187Z,23.26
2018-04-08T11:39:55.806Z,22.32
2018-04-08T11:42:23.313Z,21.29
2018-04-08T11:44:50.863Z,21.37
2018-04-08T11:47:18.418Z,23.24
2018-04-08T11:49:45.974Z,23.73
2018-04-08T11:52:13.482Z,23.41
2018-04-08T11:54:40.987Z,23.34
2018-04-08T11:57:08.539Z,23.25
2018-04-08T11:59:36.080Z,23.15
2018-04-08T12:02:03.699Z,22.39
2018-04-08T12:04:31.180Z,22.53
2018-04-08T12:06:58.676Z,22.50
2018-04-08T12:09:26.181Z,22.80
2018-04-08T12:11:53.684Z,22.65
2018-04-08T12:14:21.194Z,23.36
2018-04-08T12:16:48.753Z,23.66
2018-04-08T12:19:16.261Z,25.52
2018-04-08T12:21:43.774Z,24.04
2018-04-08T12:24:11.272Z,24.93
2018-04-08T12:26:38.825Z,24.55
2018-04-08T12:29:06.384Z,25.08
2018-04-08T12:31:33.904Z,25.66
2018-04-08T12:34:01.436Z,25.83
2018-04-08T12:36:29.003Z,25.99
2018-04-08T12:38:56.518Z,25.71
2018-04-08T12:41:25.012Z,26.08
2018-04-08T12:43:52.529Z,27.30
2018-04-08T12:46:20.033Z,27.15
2018-04-08T12:48:47.569Z,26.41
2018-04-08T12:51:15.069Z,26.22
2018-04-08T12:53:42.575Z,26.93
2018-04-08T12:56:10.078Z,26.83
2018-04-08T12:58:37.625Z,27.09
2018-04-08T13:01:05.124Z,26.90
2018-04-08T13:03:32.677Z,26.92
2018-04-08T13:06:00.185Z,27.55
2018-04-08T13:08:27.734Z,29.82
2018-04-08T13:10:55.234Z,31.42
2018-04-08T13:13:22.740Z,30.46
2018-04-08T13:15:50.256Z,30.70
2018-04-08T13:18:17.760Z,30.92
2018-04-08T13:20:45.315Z,31.79
2018-04-08T13:23:12.816Z,31.58
2018-04-08T13:25:40.321Z,31.79
2018-04-08T13:28:07.852Z,31.77
2018-04-08T13:30:35.346Z,32.50
2018-04-08T13:33:02.848Z,33.13
2018-04-08T13:35:30.418Z,33.11
2018-04-08T13:37:57.916Z,32.85
2018-04-08T13:40:25.425Z,33.31
2018-04-08T13:42:52.925Z,33.01
2018-04-08T13:45:21.185Z,32.41
2018-04-08T13:47:48.692Z,30.14
2018-04-08T13:50:16.228Z,30.41
2018-04-08T13:52:43.735Z,32.26
2018-04-08T13:55:11.279Z,33.70
2018-04-08T13:57:38.793Z,34.03
2018-04-08T14:00:06.363Z,33.67
2018-04-08T14:02:33.914Z,34.16
2018-04-08T14:05:01.458Z,34.07
2018-04-08T14:07:28.963Z,34.92
2018-04-08T14:09:56.471Z,35.51
2018-04-08T14:12:23.978Z,35.44
2018-04-08T14:14:51.530Z,36.08
2018-04-08T14:17:19.078Z,36.02
2018-04-08T14:19:46.590Z,36.67
2018-04-08T14:22:14.097Z,35.99
2018-04-08T14:24:41.647Z,36.08
2018-04-08T14:27:09.152Z,37.34
2018-04-08T14:29:36.713Z,37.62
2018-04-08T14:32:04.225Z,37.92
2018-04-08T14:34:31.803Z,37.69
2018-04-08T14:36:59.309Z,37.85
2018-04-08T14:39:26.811Z,37.96
2018-04-08T14:41:54.341Z,38.13
2018-04-08T14:44:21.851Z,38.33
2018-04-08T14:46:49.352Z,38.54
2018-04-08T14:49:16.898Z,38.50
2018-04-08T14:51:44.401Z,38.89
2018-04-08T14:54:11.961Z,39.10
2018-04-08T14:56:39.482Z,39.09
2018-04-08T14:59:07.001Z,38.87
2018-04-08T15:01:34.556Z,38.36
2018-04-08T15:04:02.067Z,38.59
2018-04-08T15:06:29.623Z,38.93
2018-04-08T15:08:57.152Z,38.64
2018-04-08T15:11:24.697Z,38.66
2018-04-08T15:13:52.208Z,39.00
2018-04-08T15:16:19.765Z,39.03
2018-04-08T15:18:47.281Z,39.96
2018-04-08T15:21:14.823Z,40.07
2018-04-08T15:23:42.327Z,40.04
2018-04-08T15:26:09.824Z,40.59
2018-04-08T15:28:37.357Z,40.31
2018-04-08T15:31:04.904Z,40.16
2018-04-08T15:33:32.423Z,40.48
2018-04-08T15:36:00.007Z,41.05
2018-04-08T15:38:27.524Z,42.03
2018-04-08T15:40:55.085Z,42.11
2018-04-08T15:43:22.588Z,42.21
2018-04-08T15:45:50.142Z,41.76
2018-04-08T15:48:17.653Z,41.87
2018-04-08T15:50:45.209Z,41.82
2018-04-08T15:53:12.799Z,41.92
2018-04-08T15:55:40.358Z,41.83
2018-04-08T15:58:07.872Z,41.58
2018-04-08T16:00:35.405Z,41.69
2018-04-08T16:03:02.960Z,41.75
2018-04-08T16:05:30.529Z,41.94
2018-04-08T16:07:58.033Z,42.15
2018-04-08T16:10:25.549Z,42.55
2018-04-08T16:12:53.099Z,42.68
2018-04-08T16:15:20.629Z,42.67
2018-04-08T16:17:48.133Z,42.52
2018-04-08T16:20:15.644Z,43.15
2018-04-08T16:22:43.146Z,43.02
2018-04-08T16:25:10.646Z,43.45
2018-04-08T16:27:38.231Z,43.53
2018-04-08T16:30:05.756Z,43.92
2018-04-08T16:32:33.271Z,44.04
2018-04-08T16:35:00.814Z,43.86
2018-04-08T16:37:28.330Z,43.83
2018-04-08T16:39:55.820Z,43.90
2018-04-08T16:42:23.403Z,44.11
2018-04-08T16:44:50.941Z,44.40
2018-04-08T16:47:18.444Z,44.00
2018-04-08T16:49:45.953Z,43.92
2018-04-08T16:52:13.501Z,43.91
2018-04-08T16:54:40.998Z,43.93
2018-04-08T16:57:08.512Z,43.96
2018-04-08T16:59:36.026Z,43.84
2018-04-08T17:02:03.573Z,44.13
2018-04-08T17:04:31.111Z,44.37
2018-04-08T17:06:58.631Z,44.33
2018-04-08T17:09:26.211Z,44.16
2018-04-08T17:11:53.685Z,44.48
2018-04-08T17:14:21.244Z,44.99
2018-04-08T17:16:48.753Z,44.49
2018-04-08T17:19:16.316Z,44.95
2018-04-08T17:21:43.865Z,45.34
2018-04-08T17:24:11.378Z,45.45
2018-04-08T17:26:38.887Z,45.73
2018-04-08T17:29:06.409Z,45.67
2018-04-08T17:31:34.738Z,45.26
2018-04-08T17:34:02.259Z,45.03
2018-04-08T17:36:29.775Z,45.50
2018-04-08T17:38:57.281Z,46.67
2018-04-08T17:41:24.804Z,46.98
2018-04-08T17:43:52.358Z,46.71
2018-04-08T17:46:19.879Z,47.04
2018-04-08T17:48:47.410Z,47.47
2018-04-08T17:51:14.919Z,47.21
2018-04-08T17:53:42.425Z,47.65
2018-04-08T17:56:09.939Z,48.13
2018-04-08T17:58:37.457Z,48.47
2018-04-08T18:01:05.049Z,48.92
2018-04-08T18:03:32.589Z,49.13
2018-04-08T18:06:00.536Z,49.36
2018-04-08T18:08:28.050Z,49.57
2018-04-08T18:10:55.612Z,49.67
2018-04-08T18:13:23.145Z,50.00
2018-04-08T18:15:50.660Z,50.55
2018-04-08T18:18:18.173Z,50.64
2018-04-08T18:20:45.741Z,50.46
2018-04-08T18:23:13.253Z,50.54
2018-04-08T18:25:40.781Z,50.68
2018-04-08T18:28:08.300Z,50.86
2018-04-08T18:30:35.856Z,50.79
2018-04-08T18:33:03.378Z,50.86
2018-04-08T18:35:31.719Z,50.70
2018-04-08T18:37:59.284Z,50.75
2018-04-08T18:40:26.801Z,50.74
2018-04-08T18:42:54.360Z,50.90
2018-04-08T18:45:21.923Z,51.31
2018-04-08T18:47:49.432Z,51.37
2018-04-08T18:50:16.988Z,51.69
2018-04-08T18:52:44.539Z,51.53
2018-04-08T18:55:12.045Z,51.71
2018-04-08T18:57:39.595Z,52.00
2018-04-08T19:00:07.131Z,52.08
2018-04-08T19:02:34.677Z,52.33
2018-04-08T19:05:02.209Z,52.01
2018-04-08T19:07:29.778Z,52.34
2018-04-08T19:09:57.280Z,52.94
2018-04-08T19:12:24.854Z,52.69
2018-04-08T19:14:57.861Z,52.70
2018-04-08T19:17:31.021Z,53.11
2018-04-08T19:19:58.523Z,53.29
2018-04-08T19:22:26.025Z,53.45
2018-04-08T19:24:53.537Z,54.01
2018-04-08T19:27:39.621Z,53.55
2018-04-08T19:30:15.241Z,53.46
2018-04-08T19:32:42.747Z,53.44
2018-04-08T19:35:10.576Z,53.09
2018-04-08T19:37:38.083Z,53.07
2018-04-08T19:40:05.594Z,53.21
2018-04-08T19:42:33.160Z,53.31
2018-04-08T19:45:00.694Z,53.47
2018-04-08T19:47:28.257Z,53.55
2018-04-08T19:49:55.766Z,53.34
2018-04-08T19:52:23.272Z,53.56
2018-04-08T19:54:50.883Z,53.55
2018-04-08T19:57:18.390Z,53.75
2018-04-08T19:59:45.946Z,54.21
2018-04-08T20:02:13.459Z,54.22
2018-04-08T20:04:41.023Z,54.11
2018-04-08T20:07:08.540Z,53.72
2018-04-08T20:09:36.052Z,54.37
2018-04-08T20:12:03.562Z,54.00
2018-04-08T20:14:31.115Z,53.61
2018-04-08T20:16:58.617Z,53.94
2018-04-08T20:19:26.170Z,53.62
2018-04-08T20:21:53.687Z,53.74
2018-04-08T20:24:21.227Z,53.67
2018-04-08T20:26:48.786Z,53.37
2018-04-08T20:29:16.333Z,53.10
2018-04-08T20:31:43.837Z,53.12
2018-04-08T20:34:11.342Z,52.84
2018-04-08T20:36:38.853Z,52.92
2018-04-08T20:39:06.400Z,53.26
2018-04-08T20:41:33.910Z,53.05
2018-04-08T20:44:01.409Z,52.77
2018-04-08T20:46:28.960Z,52.74
2018-04-08T20:48:56.496Z,52.35
2018-04-08T20:51:24.042Z,51.94
2018-04-08T20:53:51.540Z,51.83
2018-04-08T20:56:19.054Z,51.74
2018-04-08T20:58:46.584Z,50.71
2018-04-08T21:01:14.124Z,50.32
2018-04-08T21:03:41.634Z,50.02
2018-04-08T21:06:09.196Z,49.72
2018-04-08T21:08:36.700Z,50.58
2018-04-08T21:11:04.288Z,50.30
2018-04-08T21:13:31.812Z,51.16
2018-04-08T21:15:59.399Z,51.86
2018-04-08T21:18:26.914Z,52.64
2018-04-08T21:20:54.467Z,53.38
2018-04-08T21:23:21.985Z,54.07
2018-04-08T21:25:49.537Z,54.86
2018-04-08T21:28:17.080Z,56.36
2018-04-08T21:30:44.648Z,57.62
2018-04-08T21:33:12.230Z,57.50
2018-04-08T21:35:39.773Z,58.05
2018-04-08T21:38:07.269Z,58.12
2018-04-08T21:40:34.800Z,57.65
2018-04-08T21:43:02.329Z,57.11
2018-04-08T21:45:29.840Z,57.44
2018-04-08T21:47:57.372Z,56.96
2018-04-08T21:50:24.881Z,56.54
2018-04-08T21:52:52.423Z,55.76
2018-04-08T21:55:21.719Z,55.30
2018-04-08T21:57:49.289Z,55.20
2018-04-08T22:00:16.825Z,54.90
2018-04-08T22:02:44.326Z,54.96
2018-04-08T22:05:11.865Z,55.19
2018-04-08T22:07:39.385Z,55.76
2018-04-08T22:10:06.886Z,56.03
2018-04-08T22:12:34.439Z,55.97
2018-04-08T22:15:01.948Z,56.25
2018-04-08T22:17:29.452Z,55.84
2018-04-08T22:19:56.979Z,55.49
2018-04-08T22:22:24.487Z,55.30
2018-04-08T22:24:51.995Z,54.36
2018-04-08T22:27:19.509Z,53.93
2018-04-08T22:29:47.056Z,53.73
2018-04-08T22:32:14.553Z,53.16
2018-04-08T22:34:42.069Z,52.59
2018-04-08T22:37:09.588Z,51.76
2018-04-08T22:39:37.148Z,51.66
2018-04-08T22:42:04.696Z,50.90
2018-04-08T22:44:32.192Z,50.96
2018-04-08T22:46:59.702Z,50.62
2018-04-08T22:49:27.205Z,50.26
2018-04-08T22:51:54.717Z,50.45
2018-04-08T22:54:22.227Z,50.04
2018-04-08T22:56:49.721Z,50.06
2018-04-08T22:59:17.230Z,50.28
2018-04-08T23:01:44.776Z,50.13
2018-04-08T23:04:12.274Z,50.33
2018-04-08T23:06:39.784Z,50.44
2018-04-08T23:09:07.329Z,50.70
2018-04-08T23:11:34.842Z,50.72
2018-04-08T23:14:02.353Z,50.83
2018-04-08T23:16:29.909Z,50.78
2018-04-08T23:18:57.412Z,50.83
2018-04-08T23:21:24.908Z,51.11
2018-04-08T23:23:52.418Z,51.09
2018-04-08T23:26:19.958Z,51.16
2018-04-08T23:28:47.520Z,51.01
2018-04-08T23:31:15.058Z,51.12
2018-04-08T23:33:43.436Z,51.18
2018-04-08T23:36:10.974Z,51.58
2018-04-08T23:38:38.478Z,51.59
2018-04-08T23:41:06.018Z,51.72
2018-04-08T23:43:33.521Z,51.84
2018-04-08T23:46:01.017Z,51.75
2018-04-08T23:48:28.516Z,51.92
2018-04-08T23:50:56.028Z,52.26
2018-04-08T23:53:23.557Z,52.13
2018-04-08T23:55:51.075Z,52.47
2018-04-08T23:58:18.618Z,52.28
